sensor_id;sensor_type;location;lat;lon;timestamp;pressure;altitude;pressure_sealevel;temperature;humidity
66742;BME280;53654;54.152;19.432;2023-05-25T00:00:45;101864.31;;;16.26;71.08
66742;BME280;53654;54.152;19.432;2023-05-25T00:03:31;101866.64;;;16.23;71.36
66742;BME280;53654;54.152;19.432;2023-05-25T00:05:59;101867.73;;;16.21;71.56
66742;BME280;53654;54.152;19.432;2023-05-25T00:08:30;101867.04;;;16.21;71.91
66742;BME280;53654;54.152;19.432;2023-05-25T00:10:59;101864.02;;;16.22;72.03
66742;BME280;53654;54.152;19.432;2023-05-25T00:13:27;101868.39;;;16.24;71.97
66742;BME280;53654;54.152;19.432;2023-05-25T00:15:55;101872.25;;;16.25;72.05
66742;BME280;53654;54.152;19.432;2023-05-25T00:18:23;101868.40;;;16.23;72.02
66742;BME280;53654;54.152;19.432;2023-05-25T00:20:52;101871.95;;;16.22;72.28
66742;BME280;53654;54.152;19.432;2023-05-25T00:23:21;101872.48;;;16.22;72.27
66742;BME280;53654;54.152;19.432;2023-05-25T00:25:49;101870.36;;;16.22;72.36
66742;BME280;53654;54.152;19.432;2023-05-25T00:28:17;101868.61;;;16.21;72.46
66742;BME280;53654;54.152;19.432;2023-05-25T00:30:45;101865.27;;;16.21;72.55
66742;BME280;53654;54.152;19.432;2023-05-25T00:33:14;101870.71;;;16.21;72.52
66742;BME280;53654;54.152;19.432;2023-05-25T00:35:42;101868.64;;;16.19;72.69
66742;BME280;53654;54.152;19.432;2023-05-25T00:38:19;101872.89;;;16.18;72.81
66742;BME280;53654;54.152;19.432;2023-05-25T00:40:47;101875.03;;;16.15;72.84
66742;BME280;53654;54.152;19.432;2023-05-25T00:43:15;101873.83;;;16.13;72.84
66742;BME280;53654;54.152;19.432;2023-05-25T00:45:43;101878.44;;;16.11;72.96
66742;BME280;53654;54.152;19.432;2023-05-25T00:48:12;101882.48;;;16.11;73.16
66742;BME280;53654;54.152;19.432;2023-05-25T00:50:42;101883.20;;;16.10;73.11
66742;BME280;53654;54.152;19.432;2023-05-25T00:53:12;101882.48;;;16.12;73.08
66742;BME280;53654;54.152;19.432;2023-05-25T00:56:02;101884.23;;;16.11;73.01
66742;BME280;53654;54.152;19.432;2023-05-25T00:58:34;101884.63;;;16.09;73.01
66742;BME280;53654;54.152;19.432;2023-05-25T01:01:05;101877.95;;;16.07;72.91
66742;BME280;53654;54.152;19.432;2023-05-25T01:03:34;101870.89;;;16.10;72.98
66742;BME280;53654;54.152;19.432;2023-05-25T01:06:10;101864.17;;;16.11;72.80
66742;BME280;53654;54.152;19.432;2023-05-25T01:08:44;101873.88;;;16.09;72.46
66742;BME280;53654;54.152;19.432;2023-05-25T01:11:15;101882.88;;;16.08;72.47
66742;BME280;53654;54.152;19.432;2023-05-25T01:13:48;101885.33;;;16.08;72.32
66742;BME280;53654;54.152;19.432;2023-05-25T01:16:17;101884.61;;;16.10;72.14
66742;BME280;53654;54.152;19.432;2023-05-25T01:18:46;101889.52;;;16.10;71.90
66742;BME280;53654;54.152;19.432;2023-05-25T01:24:16;101895.00;;;16.09;71.42
66742;BME280;53654;54.152;19.432;2023-05-25T01:27:18;101896.45;;;16.06;71.18
66742;BME280;53654;54.152;19.432;2023-05-25T01:29:49;101901.30;;;15.99;70.98
66742;BME280;53654;54.152;19.432;2023-05-25T01:32:18;101897.79;;;15.97;71.07
66742;BME280;53654;54.152;19.432;2023-05-25T01:34:47;101901.70;;;15.95;70.96
66742;BME280;53654;54.152;19.432;2023-05-25T01:37:18;101907.20;;;15.92;71.00
66742;BME280;53654;54.152;19.432;2023-05-25T01:39:47;101906.67;;;15.91;71.16
66742;BME280;53654;54.152;19.432;2023-05-25T01:42:15;101907.52;;;15.94;71.12
66742;BME280;53654;54.152;19.432;2023-05-25T01:44:43;101907.15;;;15.95;70.98
66742;BME280;53654;54.152;19.432;2023-05-25T01:47:47;101913.33;;;15.95;70.87
66742;BME280;53654;54.152;19.432;2023-05-25T01:50:57;101917.61;;;15.89;70.77
66742;BME280;53654;54.152;19.432;2023-05-25T01:53:51;101919.98;;;15.81;70.88
66742;BME280;53654;54.152;19.432;2023-05-25T01:56:22;101922.63;;;15.80;70.94
66742;BME280;53654;54.152;19.432;2023-05-25T01:58:52;101918.38;;;15.84;70.96
66742;BME280;53654;54.152;19.432;2023-05-25T02:01:21;101918.17;;;15.86;70.89
66742;BME280;53654;54.152;19.432;2023-05-25T02:03:50;101914.98;;;15.87;70.76
66742;BME280;53654;54.152;19.432;2023-05-25T02:06:19;101915.31;;;15.89;70.76
66742;BME280;53654;54.152;19.432;2023-05-25T02:08:47;101916.91;;;15.89;70.63
66742;BME280;53654;54.152;19.432;2023-05-25T02:11:16;101917.98;;;15.88;70.55
66742;BME280;53654;54.152;19.432;2023-05-25T02:13:45;101913.24;;;15.86;70.53
66742;BME280;53654;54.152;19.432;2023-05-25T02:16:13;101910.11;;;15.85;70.63
66742;BME280;53654;54.152;19.432;2023-05-25T02:18:44;101911.04;;;15.79;70.48
66742;BME280;53654;54.152;19.432;2023-05-25T02:21:12;101910.41;;;15.73;70.66
66742;BME280;53654;54.152;19.432;2023-05-25T02:23:41;101913.96;;;15.70;70.89
66742;BME280;53654;54.152;19.432;2023-05-25T02:26:09;101909.40;;;15.69;70.88
66742;BME280;53654;54.152;19.432;2023-05-25T02:28:38;101912.20;;;15.71;70.93
66742;BME280;53654;54.152;19.432;2023-05-25T02:31:06;101919.20;;;15.72;71.10
66742;BME280;53654;54.152;19.432;2023-05-25T02:33:34;101918.48;;;15.72;71.00
66742;BME280;53654;54.152;19.432;2023-05-25T02:36:03;101917.30;;;15.70;71.18
66742;BME280;53654;54.152;19.432;2023-05-25T02:38:32;101925.73;;;15.70;71.29
66742;BME280;53654;54.152;19.432;2023-05-25T02:41:00;101925.90;;;15.71;71.55
66742;BME280;53654;54.152;19.432;2023-05-25T02:43:28;101929.92;;;15.74;71.70
66742;BME280;53654;54.152;19.432;2023-05-25T02:45:56;101930.95;;;15.76;71.72
66742;BME280;53654;54.152;19.432;2023-05-25T02:48:24;101933.21;;;15.78;71.85
66742;BME280;53654;54.152;19.432;2023-05-25T02:50:53;101931.80;;;15.79;72.03
66742;BME280;53654;54.152;19.432;2023-05-25T02:53:21;101926.86;;;15.79;72.18
66742;BME280;53654;54.152;19.432;2023-05-25T02:55:49;101925.11;;;15.80;72.34
66742;BME280;53654;54.152;19.432;2023-05-25T02:58:19;101924.05;;;15.80;72.41
66742;BME280;53654;54.152;19.432;2023-05-25T03:00:58;101921.41;;;15.80;72.78
66742;BME280;53654;54.152;19.432;2023-05-25T03:03:27;101921.92;;;15.82;72.97
66742;BME280;53654;54.152;19.432;2023-05-25T03:05:56;101922.43;;;15.83;73.19
66742;BME280;53654;54.152;19.432;2023-05-25T03:08:24;101923.80;;;15.85;73.48
66742;BME280;53654;54.152;19.432;2023-05-25T03:10:54;101924.15;;;15.87;73.54
66742;BME280;53654;54.152;19.432;2023-05-25T03:13:22;101925.53;;;15.89;73.95
66742;BME280;53654;54.152;19.432;2023-05-25T03:15:50;101922.16;;;15.91;74.07
66742;BME280;53654;54.152;19.432;2023-05-25T03:18:18;101924.77;;;15.94;74.07
66742;BME280;53654;54.152;19.432;2023-05-25T03:20:47;101933.18;;;15.97;74.11
66742;BME280;53654;54.152;19.432;2023-05-25T03:23:15;101931.93;;;15.98;74.10
66742;BME280;53654;54.152;19.432;2023-05-25T03:25:44;101929.48;;;15.97;74.35
66742;BME280;53654;54.152;19.432;2023-05-25T03:28:13;101932.27;;;15.99;74.21
66742;BME280;53654;54.152;19.432;2023-05-25T03:30:41;101930.48;;;16.01;74.33
66742;BME280;53654;54.152;19.432;2023-05-25T03:33:09;101933.09;;;16.04;74.44
66742;BME280;53654;54.152;19.432;2023-05-25T03:35:44;101929.89;;;16.06;74.19
66742;BME280;53654;54.152;19.432;2023-05-25T03:38:13;101926.89;;;16.07;74.29
66742;BME280;53654;54.152;19.432;2023-05-25T03:40:41;101930.56;;;16.09;74.15
66742;BME280;53654;54.152;19.432;2023-05-25T03:43:09;101927.73;;;16.10;74.15
66742;BME280;53654;54.152;19.432;2023-05-25T03:45:37;101923.00;;;16.09;74.25
66742;BME280;53654;54.152;19.432;2023-05-25T03:48:05;101920.67;;;16.11;74.22
66742;BME280;53654;54.152;19.432;2023-05-25T03:50:33;101920.81;;;16.14;74.33
66742;BME280;53654;54.152;19.432;2023-05-25T03:53:02;101923.59;;;16.18;74.30
66742;BME280;53654;54.152;19.432;2023-05-25T03:55:30;101923.38;;;16.20;74.36
66742;BME280;53654;54.152;19.432;2023-05-25T03:57:59;101927.73;;;16.24;74.38
66742;BME280;53654;54.152;19.432;2023-05-25T04:00:27;101924.15;;;16.28;74.38
66742;BME280;53654;54.152;19.432;2023-05-25T04:02:55;101922.67;;;16.33;74.19
66742;BME280;53654;54.152;19.432;2023-05-25T04:05:24;101918.91;;;16.38;74.06
66742;BME280;53654;54.152;19.432;2023-05-25T04:07:53;101920.27;;;16.41;73.71
66742;BME280;53654;54.152;19.432;2023-05-25T04:10:22;101926.73;;;16.46;73.60
66742;BME280;53654;54.152;19.432;2023-05-25T04:12:50;101931.58;;;16.51;73.55
66742;BME280;53654;54.152;19.432;2023-05-25T04:15:19;101934.30;;;16.58;73.46
66742;BME280;53654;54.152;19.432;2023-05-25T04:18:02;101934.59;;;16.62;73.44
66742;BME280;53654;54.152;19.432;2023-05-25T04:20:31;101932.41;;;16.68;73.23
66742;BME280;53654;54.152;19.432;2023-05-25T04:22:59;101933.77;;;16.83;72.87
66742;BME280;53654;54.152;19.432;2023-05-25T04:25:28;101932.75;;;16.92;72.19
66742;BME280;53654;54.152;19.432;2023-05-25T04:27:57;101933.16;;;16.99;71.56
66742;BME280;53654;54.152;19.432;2023-05-25T04:30:44;101935.06;;;17.02;71.39
66742;BME280;53654;54.152;19.432;2023-05-25T04:33:52;101938.45;;;17.00;71.19
66742;BME280;53654;54.152;19.432;2023-05-25T04:36:28;101933.32;;;17.00;71.13
66742;BME280;53654;54.152;19.432;2023-05-25T04:39:01;101928.03;;;17.00;71.13
66742;BME280;53654;54.152;19.432;2023-05-25T04:41:31;101923.43;;;17.01;71.07
66742;BME280;53654;54.152;19.432;2023-05-25T04:44:04;101920.41;;;17.03;70.87
66742;BME280;53654;54.152;19.432;2023-05-25T04:46:39;101923.14;;;17.08;70.78
66742;BME280;53654;54.152;19.432;2023-05-25T04:49:14;101919.09;;;17.19;70.67
66742;BME280;53654;54.152;19.432;2023-05-25T04:51:46;101918.52;;;17.31;70.50
66742;BME280;53654;54.152;19.432;2023-05-25T04:54:14;101919.91;;;17.42;70.15
66742;BME280;53654;54.152;19.432;2023-05-25T04:56:43;101917.05;;;17.54;69.85
66742;BME280;53654;54.152;19.432;2023-05-25T04:59:11;101914.41;;;17.62;69.49
66742;BME280;53654;54.152;19.432;2023-05-25T05:01:39;101908.96;;;17.72;69.33
66742;BME280;53654;54.152;19.432;2023-05-25T05:04:12;101903.30;;;17.81;68.86
66742;BME280;53654;54.152;19.432;2023-05-25T05:06:40;101904.25;;;17.95;68.44
66742;BME280;53654;54.152;19.432;2023-05-25T05:09:13;101903.91;;;18.12;67.94
66742;BME280;53654;54.152;19.432;2023-05-25T05:11:41;101901.31;;;18.25;67.11
66742;BME280;53654;54.152;19.432;2023-05-25T05:14:10;101909.77;;;18.50;66.58
66742;BME280;53654;54.152;19.432;2023-05-25T05:16:39;101914.14;;;18.68;65.61
66742;BME280;53654;54.152;19.432;2023-05-25T05:19:08;101912.13;;;19.06;64.82
66742;BME280;53654;54.152;19.432;2023-05-25T05:21:37;101911.88;;;19.64;63.17
66742;BME280;53654;54.152;19.432;2023-05-25T05:24:06;101908.10;;;20.21;61.53
66742;BME280;53654;54.152;19.432;2023-05-25T05:26:34;101911.34;;;20.71;59.33
66742;BME280;53654;54.152;19.432;2023-05-25T05:29:26;101920.54;;;21.31;57.82
66742;BME280;53654;54.152;19.432;2023-05-25T05:31:55;101921.62;;;21.86;56.07
66742;BME280;53654;54.152;19.432;2023-05-25T05:34:25;101926.71;;;22.26;54.32
66742;BME280;53654;54.152;19.432;2023-05-25T05:36:53;101923.06;;;22.51;53.25
66742;BME280;53654;54.152;19.432;2023-05-25T05:39:26;101921.27;;;22.74;52.38
66742;BME280;53654;54.152;19.432;2023-05-25T05:41:55;101923.93;;;23.04;51.46
66742;BME280;53654;54.152;19.432;2023-05-25T05:44:23;101931.22;;;23.38;50.36
66742;BME280;53654;54.152;19.432;2023-05-25T05:46:56;101935.59;;;23.77;49.73
66742;BME280;53654;54.152;19.432;2023-05-25T05:49:29;101932.37;;;24.16;48.64
66742;BME280;53654;54.152;19.432;2023-05-25T05:51:59;101926.27;;;24.58;47.72
66742;BME280;53654;54.152;19.432;2023-05-25T05:54:27;101925.13;;;24.96;46.49
66742;BME280;53654;54.152;19.432;2023-05-25T05:56:59;101930.66;;;25.35;45.81
66742;BME280;53654;54.152;19.432;2023-05-25T05:59:28;101931.23;;;25.68;44.42
66742;BME280;53654;54.152;19.432;2023-05-25T06:01:56;101929.70;;;26.04;43.36
66742;BME280;53654;54.152;19.432;2023-05-25T06:04:24;101936.36;;;26.33;42.87
66742;BME280;53654;54.152;19.432;2023-05-25T06:06:56;101937.34;;;26.56;42.40
66742;BME280;53654;54.152;19.432;2023-05-25T06:09:25;101933.43;;;26.81;41.31
66742;BME280;53654;54.152;19.432;2023-05-25T06:11:55;101929.58;;;27.02;40.65
66742;BME280;53654;54.152;19.432;2023-05-25T06:14:23;101929.43;;;27.13;40.21
66742;BME280;53654;54.152;19.432;2023-05-25T06:16:57;101931.20;;;27.31;39.97
66742;BME280;53654;54.152;19.432;2023-05-25T06:19:25;101934.45;;;27.49;39.25
66742;BME280;53654;54.152;19.432;2023-05-25T06:21:53;101929.05;;;27.67;39.13
66742;BME280;53654;54.152;19.432;2023-05-25T06:24:22;101929.88;;;27.77;38.52
66742;BME280;53654;54.152;19.432;2023-05-25T06:26:50;101932.31;;;27.75;38.16
66742;BME280;53654;54.152;19.432;2023-05-25T06:29:19;101935.50;;;27.67;38.53
66742;BME280;53654;54.152;19.432;2023-05-25T06:31:48;101938.60;;;27.51;38.53
66742;BME280;53654;54.152;19.432;2023-05-25T06:34:17;101944.13;;;27.31;39.02
66742;BME280;53654;54.152;19.432;2023-05-25T06:36:46;101941.73;;;27.08;39.27
66742;BME280;53654;54.152;19.432;2023-05-25T06:39:14;101951.98;;;26.88;39.44
66742;BME280;53654;54.152;19.432;2023-05-25T06:41:43;101959.41;;;26.65;39.74
66742;BME280;53654;54.152;19.432;2023-05-25T06:44:13;101964.20;;;26.44;40.59
66742;BME280;53654;54.152;19.432;2023-05-25T06:46:46;101966.33;;;26.28;40.89
66742;BME280;53654;54.152;19.432;2023-05-25T06:49:15;101967.96;;;26.17;41.33
66742;BME280;53654;54.152;19.432;2023-05-25T06:51:43;101970.85;;;26.00;41.34
66742;BME280;53654;54.152;19.432;2023-05-25T06:54:11;101967.86;;;25.82;41.78
66742;BME280;53654;54.152;19.432;2023-05-25T06:56:42;101964.21;;;25.70;42.01
66742;BME280;53654;54.152;19.432;2023-05-25T06:59:10;101965.25;;;25.63;42.56
66742;BME280;53654;54.152;19.432;2023-05-25T07:01:38;101968.09;;;25.50;43.04
66742;BME280;53654;54.152;19.432;2023-05-25T07:04:08;101966.05;;;25.34;43.42
66742;BME280;53654;54.152;19.432;2023-05-25T07:06:36;101970.96;;;25.18;43.79
66742;BME280;53654;54.152;19.432;2023-05-25T07:09:04;101973.35;;;25.03;43.88
66742;BME280;53654;54.152;19.432;2023-05-25T07:11:32;101970.70;;;24.95;44.32
66742;BME280;53654;54.152;19.432;2023-05-25T07:14:00;101971.69;;;24.97;44.68
66742;BME280;53654;54.152;19.432;2023-05-25T07:16:28;101973.61;;;25.01;44.60
66742;BME280;53654;54.152;19.432;2023-05-25T07:18:57;101976.98;;;25.12;44.12
66742;BME280;53654;54.152;19.432;2023-05-25T07:21:30;101975.67;;;25.27;44.12
66742;BME280;53654;54.152;19.432;2023-05-25T07:24:03;101978.11;;;25.36;44.07
66742;BME280;53654;54.152;19.432;2023-05-25T07:26:33;101978.21;;;25.37;43.79
66742;BME280;53654;54.152;19.432;2023-05-25T07:29:01;101981.17;;;25.35;44.45
66742;BME280;53654;54.152;19.432;2023-05-25T07:31:30;101989.03;;;25.32;44.52
66742;BME280;53654;54.152;19.432;2023-05-25T07:33:58;101988.98;;;25.19;44.32
66742;BME280;53654;54.152;19.432;2023-05-25T07:36:26;101991.06;;;25.06;44.67
66742;BME280;53654;54.152;19.432;2023-05-25T07:38:54;101997.89;;;24.98;44.80
66742;BME280;53654;54.152;19.432;2023-05-25T07:41:23;101994.39;;;24.88;45.52
66742;BME280;53654;54.152;19.432;2023-05-25T07:43:51;101994.16;;;24.82;46.06
66742;BME280;53654;54.152;19.432;2023-05-25T07:46:19;102002.79;;;24.73;45.92
66742;BME280;53654;54.152;19.432;2023-05-25T07:48:52;102001.59;;;24.61;45.68
66742;BME280;53654;54.152;19.432;2023-05-25T07:51:21;102002.85;;;24.50;46.57
66742;BME280;53654;54.152;19.432;2023-05-25T07:53:54;102005.45;;;24.44;47.66
66742;BME280;53654;54.152;19.432;2023-05-25T07:56:23;102001.73;;;24.39;47.23
66742;BME280;53654;54.152;19.432;2023-05-25T07:58:52;101999.83;;;24.30;47.68
66742;BME280;53654;54.152;19.432;2023-05-25T08:01:20;101999.77;;;24.20;48.19
66742;BME280;53654;54.152;19.432;2023-05-25T08:03:53;101996.77;;;24.15;47.93
66742;BME280;53654;54.152;19.432;2023-05-25T08:06:22;101999.41;;;24.11;48.70
66742;BME280;53654;54.152;19.432;2023-05-25T08:08:50;101992.98;;;24.12;48.78
66742;BME280;53654;54.152;19.432;2023-05-25T08:11:22;101997.86;;;24.10;48.96
66742;BME280;53654;54.152;19.432;2023-05-25T08:13:51;102001.81;;;24.09;48.82
66742;BME280;53654;54.152;19.432;2023-05-25T08:16:20;102002.73;;;24.05;48.17
66742;BME280;53654;54.152;19.432;2023-05-25T08:18:48;102003.73;;;23.99;48.24
66742;BME280;53654;54.152;19.432;2023-05-25T08:21:16;102005.52;;;23.87;48.50
66742;BME280;53654;54.152;19.432;2023-05-25T08:23:45;102009.20;;;23.76;48.88
66742;BME280;53654;54.152;19.432;2023-05-25T08:26:13;102013.80;;;23.68;49.40
66742;BME280;53654;54.152;19.432;2023-05-25T08:29:04;102015.61;;;23.64;50.10
66742;BME280;53654;54.152;19.432;2023-05-25T08:31:33;102010.77;;;23.56;50.19
66742;BME280;53654;54.152;19.432;2023-05-25T08:34:01;102011.17;;;23.46;50.08
66742;BME280;53654;54.152;19.432;2023-05-25T08:36:30;102018.99;;;23.38;50.15
66742;BME280;53654;54.152;19.432;2023-05-25T08:39:01;102021.19;;;23.28;50.52
66742;BME280;53654;54.152;19.432;2023-05-25T08:41:30;102019.80;;;23.19;51.01
66742;BME280;53654;54.152;19.432;2023-05-25T08:43:59;102020.92;;;23.13;51.87
66742;BME280;53654;54.152;19.432;2023-05-25T08:46:33;102025.47;;;23.10;52.18
66742;BME280;53654;54.152;19.432;2023-05-25T08:49:09;102028.05;;;23.04;51.79
66742;BME280;53654;54.152;19.432;2023-05-25T08:51:42;102025.45;;;22.98;52.53
66742;BME280;53654;54.152;19.432;2023-05-25T08:54:17;102027.30;;;23.00;52.56
66742;BME280;53654;54.152;19.432;2023-05-25T08:56:51;102027.76;;;23.07;51.87
66742;BME280;53654;54.152;19.432;2023-05-25T09:02:22;102029.63;;;23.00;50.22
66742;BME280;53654;54.152;19.432;2023-05-25T09:04:54;102027.16;;;22.95;49.81
66742;BME280;53654;54.152;19.432;2023-05-25T09:07:23;102030.04;;;22.99;48.89
66742;BME280;53654;54.152;19.432;2023-05-25T09:09:52;102034.35;;;23.11;49.09
66742;BME280;53654;54.152;19.432;2023-05-25T09:12:24;102033.85;;;23.32;48.96
66742;BME280;53654;54.152;19.432;2023-05-25T09:14:52;102035.16;;;23.52;48.07
66742;BME280;53654;54.152;19.432;2023-05-25T09:17:21;102037.38;;;23.71;47.84
66742;BME280;53654;54.152;19.432;2023-05-25T09:19:49;102035.89;;;23.93;47.50
66742;BME280;53654;54.152;19.432;2023-05-25T09:22:18;102041.84;;;24.12;46.35
66742;BME280;53654;54.152;19.432;2023-05-25T09:24:46;102039.45;;;24.21;45.63
66742;BME280;53654;54.152;19.432;2023-05-25T09:27:20;102035.35;;;24.29;46.13
66742;BME280;53654;54.152;19.432;2023-05-25T09:29:49;102034.32;;;24.32;45.71
66742;BME280;53654;54.152;19.432;2023-05-25T09:32:18;102036.94;;;24.38;45.45
66742;BME280;53654;54.152;19.432;2023-05-25T09:34:47;102042.13;;;24.41;44.31
66742;BME280;53654;54.152;19.432;2023-05-25T09:37:15;102040.79;;;24.31;43.54
66742;BME280;53654;54.152;19.432;2023-05-25T09:39:46;102044.77;;;24.14;43.59
66742;BME280;53654;54.152;19.432;2023-05-25T09:42:15;102042.03;;;24.03;44.60
66742;BME280;53654;54.152;19.432;2023-05-25T09:44:43;102045.95;;;24.07;45.36
66742;BME280;53654;54.152;19.432;2023-05-25T09:47:12;102044.70;;;24.11;44.14
66742;BME280;53654;54.152;19.432;2023-05-25T09:49:44;102048.67;;;24.14;44.54
66742;BME280;53654;54.152;19.432;2023-05-25T09:52:14;102047.75;;;24.19;44.61
66742;BME280;53654;54.152;19.432;2023-05-25T09:54:44;102047.38;;;24.19;44.75
66742;BME280;53654;54.152;19.432;2023-05-25T09:57:14;102048.27;;;24.15;44.84
66742;BME280;53654;54.152;19.432;2023-05-25T09:59:43;102046.61;;;24.12;44.91
66742;BME280;53654;54.152;19.432;2023-05-25T10:02:13;102050.42;;;24.10;44.83
66742;BME280;53654;54.152;19.432;2023-05-25T10:04:41;102049.35;;;24.06;44.11
66742;BME280;53654;54.152;19.432;2023-05-25T10:07:10;102045.61;;;24.02;44.93
66742;BME280;53654;54.152;19.432;2023-05-25T10:09:39;102043.55;;;24.05;45.02
66742;BME280;53654;54.152;19.432;2023-05-25T10:12:09;102045.64;;;24.10;44.87
66742;BME280;53654;54.152;19.432;2023-05-25T10:14:38;102042.26;;;24.10;44.21
66742;BME280;53654;54.152;19.432;2023-05-25T10:17:09;102044.63;;;24.08;44.58
66742;BME280;53654;54.152;19.432;2023-05-25T10:19:58;102048.27;;;23.99;44.39
66742;BME280;53654;54.152;19.432;2023-05-25T10:22:35;102042.09;;;23.82;44.79
66742;BME280;53654;54.152;19.432;2023-05-25T10:27:41;102042.56;;;23.67;46.42
66742;BME280;53654;54.152;19.432;2023-05-25T10:30:12;102041.01;;;23.69;47.18
66742;BME280;53654;54.152;19.432;2023-05-25T10:32:43;102042.86;;;23.76;46.97
66742;BME280;53654;54.152;19.432;2023-05-25T10:35:13;102044.23;;;23.82;46.39
66742;BME280;53654;54.152;19.432;2023-05-25T10:37:42;102044.04;;;23.86;45.35
66742;BME280;53654;54.152;19.432;2023-05-25T10:40:12;102045.58;;;23.79;43.27
66742;BME280;53654;54.152;19.432;2023-05-25T10:42:44;102044.60;;;23.61;43.96
66742;BME280;53654;54.152;19.432;2023-05-25T10:45:13;102047.54;;;23.41;44.59
66742;BME280;53654;54.152;19.432;2023-05-25T10:47:41;102051.85;;;23.27;45.84
66742;BME280;53654;54.152;19.432;2023-05-25T10:50:21;102051.06;;;23.20;46.27
66742;BME280;53654;54.152;19.432;2023-05-25T10:58:22;102052.33;;;22.93;47.18
66742;BME280;53654;54.152;19.432;2023-05-25T11:01:07;102050.82;;;22.91;47.39
66742;BME280;53654;54.152;19.432;2023-05-25T11:04:21;102047.48;;;22.90;47.67
66742;BME280;53654;54.152;19.432;2023-05-25T11:09:26;102045.63;;;22.87;47.94
66742;BME280;53654;54.152;19.432;2023-05-25T11:19:52;102044.75;;;23.18;45.87
66742;BME280;53654;54.152;19.432;2023-05-25T11:24:52;102039.82;;;22.99;43.23
66742;BME280;53654;54.152;19.432;2023-05-25T11:27:27;102042.59;;;22.92;43.42
66742;BME280;53654;54.152;19.432;2023-05-25T11:29:57;102041.46;;;22.89;43.37
66742;BME280;53654;54.152;19.432;2023-05-25T11:32:26;102042.25;;;22.87;44.59
66742;BME280;53654;54.152;19.432;2023-05-25T11:34:56;102043.54;;;22.81;44.94
66742;BME280;53654;54.152;19.432;2023-05-25T11:37:26;102047.19;;;22.78;44.97
66742;BME280;53654;54.152;19.432;2023-05-25T11:39:58;102048.70;;;22.81;45.62
66742;BME280;53654;54.152;19.432;2023-05-25T11:42:27;102047.65;;;22.90;46.07
66742;BME280;53654;54.152;19.432;2023-05-25T11:45:00;102048.56;;;22.90;45.43
66742;BME280;53654;54.152;19.432;2023-05-25T11:47:30;102044.31;;;22.79;46.19
66742;BME280;53654;54.152;19.432;2023-05-25T11:50:01;102048.30;;;22.77;46.98
66742;BME280;53654;54.152;19.432;2023-05-25T11:52:29;102050.44;;;22.77;47.37
66742;BME280;53654;54.152;19.432;2023-05-25T11:54:58;102052.83;;;22.80;48.08
66742;BME280;53654;54.152;19.432;2023-05-25T11:57:26;102048.88;;;22.86;48.10
66742;BME280;53654;54.152;19.432;2023-05-25T11:59:56;102049.75;;;22.91;47.82
66742;BME280;53654;54.152;19.432;2023-05-25T12:02:36;102046.77;;;22.85;47.40
66742;BME280;53654;54.152;19.432;2023-05-25T12:05:05;102048.54;;;22.80;47.72
66742;BME280;53654;54.152;19.432;2023-05-25T12:07:44;102051.99;;;22.78;47.98
66742;BME280;53654;54.152;19.432;2023-05-25T12:10:14;102051.21;;;22.75;47.19
66742;BME280;53654;54.152;19.432;2023-05-25T12:12:50;102048.23;;;22.65;46.94
66742;BME280;53654;54.152;19.432;2023-05-25T12:15:23;102049.84;;;22.55;46.95
66742;BME280;53654;54.152;19.432;2023-05-25T12:17:52;102047.05;;;22.45;47.06
66742;BME280;53654;54.152;19.432;2023-05-25T12:20:21;102053.10;;;22.40;48.01
66742;BME280;53654;54.152;19.432;2023-05-25T12:22:50;102052.45;;;22.38;48.13
66742;BME280;53654;54.152;19.432;2023-05-25T12:25:19;102055.54;;;22.37;48.07
66742;BME280;53654;54.152;19.432;2023-05-25T12:28:08;102053.10;;;22.35;48.08
66742;BME280;53654;54.152;19.432;2023-05-25T12:30:37;102053.37;;;22.23;48.75
66742;BME280;53654;54.152;19.432;2023-05-25T12:33:06;102053.56;;;22.23;49.10
66742;BME280;53654;54.152;19.432;2023-05-25T12:35:48;102050.94;;;22.26;49.36
66742;BME280;53654;54.152;19.432;2023-05-25T12:38:17;102050.48;;;22.29;49.32
66742;BME280;53654;54.152;19.432;2023-05-25T12:40:46;102047.22;;;22.26;49.11
66742;BME280;53654;54.152;19.432;2023-05-25T12:43:15;102047.44;;;22.20;48.92
66742;BME280;53654;54.152;19.432;2023-05-25T12:45:44;102048.71;;;22.14;48.62
66742;BME280;53654;54.152;19.432;2023-05-25T12:48:12;102053.36;;;22.09;49.06
66742;BME280;53654;54.152;19.432;2023-05-25T12:50:57;102058.29;;;22.10;49.76
66742;BME280;53654;54.152;19.432;2023-05-25T12:53:25;102058.70;;;22.03;50.33
66742;BME280;53654;54.152;19.432;2023-05-25T12:56:03;102057.16;;;21.96;50.88
66742;BME280;53654;54.152;19.432;2023-05-25T12:58:31;102062.21;;;21.88;51.47
66742;BME280;53654;54.152;19.432;2023-05-25T13:01:00;102058.80;;;21.79;51.02
66742;BME280;53654;54.152;19.432;2023-05-25T13:03:28;102071.52;;;21.71;51.07
66742;BME280;53654;54.152;19.432;2023-05-25T13:06:01;102071.85;;;21.56;50.93
66742;BME280;53654;54.152;19.432;2023-05-25T13:08:29;102068.77;;;21.36;51.05
66742;BME280;53654;54.152;19.432;2023-05-25T13:10:57;102063.59;;;21.21;51.48
66742;BME280;53654;54.152;19.432;2023-05-25T13:13:26;102065.38;;;21.09;51.85
66742;BME280;53654;54.152;19.432;2023-05-25T13:15:55;102060.26;;;20.97;51.75
66742;BME280;53654;54.152;19.432;2023-05-25T13:18:25;102066.87;;;20.83;52.02
66742;BME280;53654;54.152;19.432;2023-05-25T13:20:53;102064.48;;;20.73;51.52
66742;BME280;53654;54.152;19.432;2023-05-25T13:23:24;102067.23;;;20.58;51.34
66742;BME280;53654;54.152;19.432;2023-05-25T13:25:52;102076.27;;;20.52;51.12